Time;durP1;ratioP1;P1;durP2;ratioP2;P2;SDS_P1;SDS_P2;PMS_P1;PMS_P2;Temp;Humidity;BMP_temperature;BMP_pressure;BME280_temperature;BME280_humidity;BME280_pressure;Samples;Min_cycle;Max_cycle;Signal;HPM_P1;HPM_P2
2022/04/05 00:01:28;;;;;;;3.63;3.40;;;11.10;99.90;10.70;100569.00;;;;5050973;28;20586;-66
2022/04/05 00:03:55;;;;;;;11.13;7.33;;;11.10;99.90;10.80;100571.00;;;;5050532;28;20178;-66
2022/04/05 00:06:21;;;;;;;8.17;6.90;;;11.10;99.90;10.80;100575.00;;;;5051147;28;20159;-66
2022/04/05 00:08:46;;;;;;;6.83;6.23;;;11.20;99.90;10.70;100569.00;;;;5050496;28;20196;-66
2022/04/05 00:11:12;;;;;;;10.47;5.80;;;11.20;99.90;10.70;100565.00;;;;5035546;28;20560;-66
2022/04/05 00:13:38;;;;;;;4.57;4.27;;;11.10;99.90;10.60;100580.00;;;;5035534;28;20200;-66
2022/04/05 00:16:05;;;;;;;5.73;4.33;;;11.10;99.90;10.70;100579.00;;;;5050779;28;20622;-66
2022/04/05 00:18:31;;;;;;;6.23;5.73;;;11.10;99.90;10.70;100548.00;;;;5033856;28;20202;-66
2022/04/05 00:20:57;;;;;;;3.03;2.83;;;11.10;99.90;10.70;100553.00;;;;5050850;28;20210;-66
2022/04/05 00:23:22;;;;;;;10.20;7.10;;;11.10;99.90;10.70;100556.00;;;;5050599;28;20202;-66
2022/04/05 00:25:48;;;;;;;3.53;3.27;;;11.20;99.90;10.70;100579.00;;;;5050782;28;20567;-66
2022/04/05 00:28:14;;;;;;;5.23;4.87;;;11.10;99.90;10.60;100588.00;;;;5050471;28;20544;-66
2022/04/05 00:30:40;;;;;;;16.30;10.70;;;11.10;99.90;10.60;100539.00;;;;5050821;28;20182;-66
2022/04/05 00:33:06;;;;;;;3.90;3.60;;;11.10;99.90;10.70;100578.00;;;;5033591;28;20260;-66
2022/04/05 00:35:32;;;;;;;3.23;2.93;;;11.10;99.90;10.70;100576.00;;;;5034698;28;20611;-65
2022/04/05 00:37:58;;;;;;;9.93;7.03;;;11.10;99.90;10.90;100577.00;;;;5050494;28;20187;-66
2022/04/05 00:40:25;;;;;;;5.60;5.10;;;11.20;99.90;11.00;100559.00;;;;5050553;28;20174;-65
2022/04/05 00:42:51;;;;;;;6.70;6.03;;;11.30;99.90;10.90;100583.00;;;;5049875;28;20200;-65
2022/04/05 00:45:20;;;;;;;7.33;6.70;;;11.20;99.90;10.70;100575.00;;;;5034930;28;20262;-65
2022/04/05 00:47:50;;;;;;;11.67;5.77;;;11.20;99.90;10.90;100583.00;;;;5049657;28;20181;-65
2022/04/05 00:50:22;;;;;;;1.60;1.60;;;11.20;99.90;11.00;100577.00;;;;5050696;28;20524;-65
2022/04/05 00:52:49;;;;;;;5.87;4.40;;;11.20;99.90;10.80;100566.00;;;;5050160;28;20202;-66
2022/04/05 00:55:23;;;;;;;4.93;4.53;;;11.20;99.90;10.90;100571.00;;;;5049117;28;20218;-66
2022/04/05 00:57:51;;;;;;;2.83;2.63;;;11.20;99.90;10.90;100577.00;;;;5049699;28;20179;-67
2022/04/05 01:00:18;;;;;;;16.70;4.23;;;11.20;99.90;10.90;100575.00;;;;5049797;28;20188;-67
2022/04/05 01:02:47;;;;;;;6.23;4.50;;;11.20;99.90;10.80;100570.00;;;;5049766;28;20680;-67
2022/04/05 01:05:17;;;;;;;3.97;3.63;;;11.20;99.90;11.00;100572.00;;;;5033532;28;20240;-67
2022/04/05 01:07:47;;;;;;;4.97;4.57;;;11.20;99.90;11.20;100580.00;;;;5049724;28;20664;-68
2022/04/05 01:10:13;;;;;;;8.03;4.07;;;11.30;99.90;11.10;100572.00;;;;5049758;28;20237;-67
2022/04/05 01:12:39;;;;;;;4.07;3.73;;;11.30;99.90;10.90;100586.00;;;;5032932;28;20309;-67
2022/04/05 01:15:06;;;;;;;4.57;3.93;;;11.20;99.90;10.90;100542.00;;;;5050207;28;20208;-66
2022/04/05 01:17:37;;;;;;;4.83;4.43;;;11.20;99.90;11.00;100578.00;;;;5049489;28;20241;-67
2022/04/05 01:20:04;;;;;;;10.63;6.30;;;11.20;99.90;11.20;100580.00;;;;5049693;28;20586;-67
2022/04/05 01:22:32;;;;;;;6.47;5.90;;;11.30;99.90;11.00;100554.00;;;;5033903;28;20190;-67
2022/04/05 01:24:58;;;;;;;2.33;2.23;;;11.20;99.90;11.20;100583.00;;;;5049568;28;20551;-67
2022/04/05 01:27:27;;;;;;;4.87;4.37;;;11.30;99.90;11.00;100548.00;;;;5034031;28;20192;-67
2022/04/05 01:29:56;;;;;;;3.40;3.20;;;11.30;99.90;11.10;100581.00;;;;5048798;28;20518;-67
2022/04/05 01:32:25;;;;;;;2.20;2.10;;;11.30;99.90;11.50;100581.00;;;;5049087;28;20214;-67
2022/04/05 01:34:51;;;;;;;4.80;4.40;;;11.50;99.90;11.20;100546.00;;;;5049132;28;20175;-67
2022/04/05 01:37:17;;;;;;;2.97;2.77;;;11.40;99.90;11.30;100558.00;;;;5049061;28;20186;-67
2022/04/05 01:39:43;;;;;;;2.43;2.33;;;11.40;99.90;11.10;100578.00;;;;5049020;28;20189;-67
2022/04/05 01:42:12;;;;;;;3.43;3.23;;;11.30;99.90;11.00;100571.00;;;;5049562;28;20205;-67
2022/04/05 01:44:40;;;;;;;4.07;3.60;;;11.30;99.90;11.00;100574.00;;;;5033105;28;20652;-67
2022/04/05 01:47:15;;;;;;;3.57;3.30;;;11.20;99.90;11.00;100540.00;;;;5033018;28;20229;-67
2022/04/05 01:49:45;;;;;;;3.67;3.37;;;11.20;99.90;11.20;100572.00;;;;5034164;28;20177;-67
2022/04/05 01:52:12;;;;;;;7.43;4.20;;;11.30;99.90;11.20;100568.00;;;;5048733;28;20229;-68
2022/04/05 01:54:39;;;;;;;1.43;1.43;;;11.30;99.90;11.20;100563.00;;;;5032264;28;20641;-68
2022/04/05 01:57:06;;;;;;;4.53;3.63;;;11.40;99.90;11.20;100564.00;;;;5049496;28;20205;-68
2022/04/05 01:59:34;;;;;;;5.90;5.30;;;11.40;99.90;11.10;100572.00;;;;5032931;28;20256;-68
2022/04/05 02:02:08;;;;;;;4.20;3.90;;;11.30;99.90;11.10;100576.00;;;;5048962;28;20194;-68
2022/04/05 02:04:35;;;;;;;4.03;3.60;;;11.30;99.90;11.00;100538.00;;;;5048110;28;20654;-67
2022/04/05 02:07:01;;;;;;;3.20;2.90;;;11.30;99.90;11.10;100569.00;;;;5047447;28;20194;-67
2022/04/05 02:09:27;;;;;;;9.70;6.83;;;11.30;99.90;11.10;100540.00;;;;5030708;28;20724;-68
2022/04/05 02:11:53;;;;;;;6.07;5.47;;;11.40;99.90;11.10;100561.00;;;;5048444;28;20213;-68
2022/04/05 02:14:19;;;;;;;2.37;2.27;;;11.30;99.90;11.40;100569.00;;;;5048578;28;20177;-67
2022/04/05 02:16:45;;;;;;;1.90;1.90;;;11.40;99.90;11.10;100571.00;;;;5048996;28;20255;-67
2022/04/05 02:19:11;;;;;;;7.17;5.03;;;11.40;99.90;11.20;100531.00;;;;5048643;28;20644;-67
2022/04/05 02:21:37;;;;;;;6.37;5.73;;;11.40;99.90;11.20;100569.00;;;;5048648;28;20181;-67
2022/04/05 02:24:04;;;;;;;13.23;7.83;;;11.40;99.90;11.30;100555.00;;;;5048486;28;20235;-67
2022/04/05 02:26:30;;;;;;;7.10;6.07;;;11.40;99.90;11.10;100570.00;;;;5048750;28;20174;-67
2022/04/05 02:28:58;;;;;;;5.93;5.53;;;11.40;99.90;10.90;100555.00;;;;5048490;28;20182;-67
2022/04/05 02:31:24;;;;;;;2.53;2.43;;;11.30;99.90;11.10;100566.00;;;;5048392;28;20220;-67
2022/04/05 02:33:58;;;;;;;2.73;2.53;;;11.30;99.90;11.00;100562.00;;;;5048713;28;20188;-68
2022/04/05 02:36:24;;;;;;;1.70;1.70;;;11.30;99.90;11.20;100570.00;;;;5047437;28;20242;-66
2022/04/05 02:38:50;;;;;;;4.47;4.07;;;11.30;99.90;11.40;100536.00;;;;5048977;28;20253;-67
2022/04/05 02:41:16;;;;;;;5.10;4.67;;;11.40;99.90;10.90;100551.00;;;;5048579;28;20276;-67
2022/04/05 02:43:45;;;;;;;6.50;5.93;;;11.30;99.90;11.00;100533.00;;;;5048105;28;20228;-66
2022/04/05 02:46:14;;;;;;;4.80;4.50;;;11.30;99.90;11.10;100570.00;;;;5033021;28;20182;-68
2022/04/05 02:48:46;;;;;;;4.80;4.40;;;11.30;99.90;11.00;100561.00;;;;5033057;28;20675;-68
2022/04/05 02:51:16;;;;;;;5.87;3.83;;;11.30;99.90;11.20;100559.00;;;;5048039;28;20320;-68
2022/04/05 02:53:42;;;;;;;2.87;2.77;;;11.30;99.90;10.80;100535.00;;;;5047842;28;20194;-68
2022/04/05 02:56:09;;;;;;;2.23;2.23;;;11.20;99.90;11.10;100553.00;;;;5032825;28;20707;-68
2022/04/05 02:58:36;;;;;;;3.53;3.07;;;11.20;99.90;10.80;100557.00;;;;5048021;28;20183;-68
2022/04/05 03:01:03;;;;;;;2.63;2.53;;;11.20;99.90;11.20;100560.00;;;;5048214;28;20651;-69
2022/04/05 03:03:32;;;;;;;8.53;4.73;;;11.30;99.90;11.20;100532.00;;;;5048253;28;20182;-69
2022/04/05 03:05:59;;;;;;;3.10;2.93;;;11.30;99.90;11.00;100547.00;;;;5048318;28;20182;-70
2022/04/05 03:08:25;;;;;;;2.73;2.60;;;11.20;99.90;11.00;100561.00;;;;5048301;28;20198;-69
2022/04/05 03:10:51;;;;;;;3.13;3.03;;;11.20;99.90;11.00;100558.00;;;;5048517;28;20183;-68
2022/04/05 03:13:17;;;;;;;2.20;2.20;;;11.20;99.90;11.20;100557.00;;;;5047593;28;20210;-68
2022/04/05 03:15:43;;;;;;;2.10;2.10;;;11.30;99.90;10.80;100532.00;;;;5047689;28;20183;-68
2022/04/05 03:18:09;;;;;;;3.00;2.80;;;11.20;99.90;11.00;100567.00;;;;5049159;28;20565;-67
2022/04/05 03:20:35;;;;;;;4.23;3.93;;;11.20;99.90;11.10;100533.00;;;;5035198;28;20190;-67
2022/04/05 03:23:00;;;;;;;2.67;2.57;;;11.30;99.90;11.10;100566.00;;;;5052132;28;20189;-67
2022/04/05 03:25:27;;;;;;;3.03;2.93;;;11.20;99.90;11.10;100565.00;;;;5051891;28;20182;-67
2022/04/05 03:27:53;;;;;;;3.33;3.13;;;11.20;99.90;10.90;100569.00;;;;5034920;28;20278;-67
2022/04/05 03:30:22;;;;;;;5.10;4.70;;;11.10;99.90;10.80;100564.00;;;;5051667;28;20194;-67
2022/04/05 03:32:51;;;;;;;2.73;2.63;;;11.10;99.90;10.80;100527.00;;;;5036660;28;20212;-67
2022/04/05 03:35:19;;;;;;;3.73;3.43;;;11.10;99.90;10.70;100548.00;;;;5051832;28;20179;-67
2022/04/05 03:37:45;;;;;;;3.73;3.50;;;11.10;99.90;10.80;100559.00;;;;5051367;28;20206;-67
2022/04/05 03:40:12;;;;;;;4.03;3.83;;;11.10;99.90;10.90;100553.00;;;;5051637;28;20170;-67
2022/04/05 03:42:38;;;;;;;2.57;2.47;;;11.10;99.90;10.90;100561.00;;;;5050975;28;20276;-67
2022/04/05 03:45:05;;;;;;;6.83;6.30;;;11.10;99.90;10.70;100558.00;;;;5051733;28;20643;-67
2022/04/05 03:47:31;;;;;;;4.53;4.20;;;11.00;99.90;10.60;100563.00;;;;5051329;28;20181;-66
2022/04/05 03:49:57;;;;;;;3.50;3.30;;;11.00;99.90;10.90;100528.00;;;;5051486;28;20201;-67
2022/04/05 03:52:24;;;;;;;2.80;2.70;;;11.10;99.90;10.90;100540.00;;;;5051340;28;20719;-67
2022/04/05 03:54:50;;;;;;;3.50;3.40;;;11.10;99.90;11.00;100567.00;;;;5051473;28;20205;-67
2022/04/05 03:57:15;;;;;;;3.70;3.57;;;11.10;99.90;10.90;100563.00;;;;5050774;28;20265;-67
2022/04/05 03:59:42;;;;;;;2.37;2.27;;;11.10;99.90;10.80;100564.00;;;;5051299;28;20751;-67
2022/04/05 04:02:08;;;;;;;4.47;4.30;;;11.10;99.90;10.80;100569.00;;;;5034496;28;20706;-67
2022/04/05 04:04:34;;;;;;;3.53;3.43;;;11.00;99.90;10.80;100560.00;;;;5051297;28;20545;-67
2022/04/05 04:07:00;;;;;;;5.17;4.73;;;11.10;99.90;10.60;100567.00;;;;5050490;28;20202;-67
2022/04/05 04:09:25;;;;;;;4.80;4.40;;;11.00;99.90;10.70;100552.00;;;;5051085;28;20638;-66
2022/04/05 04:11:52;;;;;;;2.27;2.17;;;11.00;99.90;10.60;100555.00;;;;5050468;28;20200;-67
2022/04/05 04:14:18;;;;;;;7.20;3.50;;;10.90;99.90;10.70;100556.00;;;;5051211;28;20621;-67
2022/04/05 04:16:44;;;;;;;6.13;5.10;;;10.90;99.90;10.60;100517.00;;;;5050982;28;20193;-67
2022/04/05 04:19:12;;;;;;;2.33;2.23;;;10.90;99.90;10.70;100529.00;;;;5050871;28;20184;-67
2022/04/05 04:21:38;;;;;;;5.90;5.43;;;11.00;99.90;10.80;100553.00;;;;5050106;28;20658;-67
2022/04/05 04:24:04;;;;;;;13.73;8.77;;;10.90;99.90;10.80;100551.00;;;;5050540;28;20214;-67
2022/04/05 04:26:30;;;;;;;6.23;5.63;;;11.00;99.90;10.70;100539.00;;;;5049917;28;20195;-67
2022/04/05 04:29:02;;;;;;;10.13;7.33;;;11.00;99.90;10.60;100546.00;;;;5050873;28;20626;-67
2022/04/05 04:31:28;;;;;;;3.73;3.53;;;11.00;99.90;10.70;100523.00;;;;5049867;28;20237;-67
2022/04/05 04:33:54;;;;;;;8.07;4.93;;;11.00;99.90;10.80;100554.00;;;;5033890;28;20197;-67
2022/04/05 04:36:21;;;;;;;9.00;4.87;;;11.00;99.90;10.80;100515.00;;;;5050954;28;20641;-67
2022/04/05 04:38:49;;;;;;;4.50;4.10;;;11.00;99.90;10.80;100549.00;;;;5049914;28;20181;-67
2022/04/05 04:41:17;;;;;;;8.73;5.80;;;11.00;99.90;10.50;100547.00;;;;5050858;28;20187;-67
2022/04/05 04:43:43;;;;;;;6.80;6.20;;;11.00;99.90;10.60;100561.00;;;;5049767;28;20639;-67
2022/04/05 04:46:09;;;;;;;2.60;2.17;;;10.90;99.90;10.50;100562.00;;;;5034728;28;20271;-67
2022/04/05 04:48:35;;;;;;;6.93;6.43;;;10.90;99.90;10.70;100551.00;;;;5050219;28;20178;-67
2022/04/05 04:51:01;;;;;;;7.60;6.90;;;11.00;99.90;10.80;100554.00;;;;5034964;28;20189;-67
2022/04/05 04:53:27;;;;;;;7.37;6.67;;;11.00;99.90;10.90;100557.00;;;;5049738;28;20178;-68
2022/04/05 04:55:53;;;;;;;5.87;5.47;;;11.00;99.90;10.70;100562.00;;;;5050523;28;20177;-68
2022/04/05 04:58:19;;;;;;;9.77;8.43;;;11.00;99.90;10.60;100563.00;;;;5050139;28;20201;-68
2022/04/05 05:00:45;;;;;;;2.77;2.67;;;10.90;99.90;10.70;100567.00;;;;5033304;28;20196;-67
2022/04/05 05:03:11;;;;;;;8.97;7.20;;;11.00;99.90;10.70;100559.00;;;;5049810;28;20276;-67
2022/04/05 05:05:39;;;;;;;9.17;6.03;;;11.00;99.90;10.80;100562.00;;;;5049969;28;20222;-66
2022/04/05 05:08:05;;;;;;;2.73;2.57;;;11.00;99.90;10.50;100561.00;;;;5033987;28;20182;-67
2022/04/05 05:10:34;;;;;;;6.40;5.80;;;10.90;99.90;10.60;100561.00;;;;5050100;28;20174;-68
2022/04/05 05:12:59;;;;;;;7.30;3.47;;;10.90;99.90;10.50;100559.00;;;;5048101;28;20221;-68
2022/04/05 05:15:26;;;;;;;2.60;2.50;;;10.90;99.90;10.80;100562.00;;;;4997109;28;20286;-68
2022/04/05 05:17:53;;;;;;;3.83;3.53;;;11.00;99.90;10.60;100560.00;;;;5013683;28;20180;-68
2022/04/05 05:20:18;;;;;;;5.87;5.37;;;11.00;99.90;10.60;100569.00;;;;5013434;28;20262;-68
2022/04/05 05:22:47;;;;;;;2.10;2.10;;;10.90;99.90;10.70;100551.00;;;;5013946;28;20278;-68
2022/04/05 05:25:16;;;;;;;9.57;5.60;;;10.90;99.90;10.70;100564.00;;;;5013978;28;20264;-68
2022/04/05 05:27:42;;;;;;;5.60;5.17;;;10.90;99.90;10.70;100533.00;;;;5023008;28;20195;-68
2022/04/05 05:30:09;;;;;;;14.03;4.93;;;11.00;99.90;10.70;100570.00;;;;5014093;28;20204;-68
2022/04/05 05:32:52;;;;;;;5.87;5.17;;;11.00;99.90;10.60;100547.00;;;;5032382;28;20301;-68
2022/04/05 05:35:20;;;;;;;6.33;5.80;;;10.90;99.90;10.60;100572.00;;;;5029422;28;20211;-68
2022/04/05 05:37:47;;;;;;;5.20;4.80;;;10.90;99.90;10.70;100577.00;;;;5012920;28;20178;-68
2022/04/05 05:40:17;;;;;;;2.87;2.77;;;10.90;99.90;10.60;100574.00;;;;5013248;28;20185;-68
2022/04/05 05:42:53;;;;;;;5.60;5.10;;;10.90;99.90;10.70;100579.00;;;;4996253;28;20190;-67
2022/04/05 05:45:20;;;;;;;2.50;2.40;;;11.00;99.90;10.70;100568.00;;;;5029531;28;20229;-68
2022/04/05 05:47:47;;;;;;;7.37;6.67;;;11.00;99.90;10.70;100575.00;;;;4996613;28;20565;-68
2022/04/05 05:50:13;;;;;;;9.03;6.77;;;11.00;99.90;10.60;100574.00;;;;5012988;28;20165;-68
2022/04/05 05:52:41;;;;;;;5.97;3.03;;;11.00;99.90;10.60;100547.00;;;;5012532;28;20689;-68
2022/04/05 05:55:11;;;;;;;8.43;4.23;;;10.90;99.90;10.90;100586.00;;;;5012680;28;20631;-68
2022/04/05 05:57:40;;;;;;;4.20;4.00;;;11.10;99.90;10.90;100580.00;;;;5012731;28;20226;-68
2022/04/05 06:00:09;;;;;;;7.93;7.17;;;11.10;99.90;10.90;100591.00;;;;5012665;28;20626;-68
2022/04/05 06:02:39;;;;;;;5.17;4.77;;;11.10;99.90;10.60;100596.00;;;;4996329;28;20658;-68
2022/04/05 06:05:07;;;;;;;3.90;3.60;;;11.10;99.90;10.70;100588.00;;;;4996346;28;20180;-68
2022/04/05 06:07:34;;;;;;;6.70;6.23;;;11.10;99.90;10.70;100592.00;;;;5012942;28;20173;-67
2022/04/05 06:10:04;;;;;;;4.93;4.50;;;11.10;99.90;10.70;100591.00;;;;5012764;28;20655;-68
2022/04/05 06:12:30;;;;;;;6.73;6.13;;;11.10;99.90;10.60;100595.00;;;;4995930;28;20247;-67
2022/04/05 06:14:55;;;;;;;6.63;5.83;;;11.00;99.90;10.70;100597.00;;;;4995945;28;20186;-67
2022/04/05 06:17:21;;;;;;;3.77;3.50;;;11.10;99.90;10.70;100595.00;;;;4996550;28;20196;-68
2022/04/05 06:19:47;;;;;;;7.00;6.40;;;11.10;99.90;10.80;100571.00;;;;4995540;28;20179;-68
2022/04/05 06:22:13;;;;;;;4.17;3.87;;;11.10;99.90;10.60;100601.00;;;;4995458;28;20664;-68
2022/04/05 06:24:40;;;;;;;8.43;6.20;;;11.10;99.90;10.80;100590.00;;;;4995791;28;20417;-68
2022/04/05 06:27:05;;;;;;;7.40;6.70;;;11.10;99.90;10.70;100603.00;;;;5013814;28;20183;-68
2022/04/05 06:29:33;;;;;;;2.00;1.90;;;11.10;99.90;10.90;100616.00;;;;5012097;28;20649;-67
2022/04/05 06:31:59;;;;;;;2.50;2.40;;;11.10;99.90;10.80;100609.00;;;;5012325;28;20209;-68
2022/04/05 06:34:25;;;;;;;8.53;7.43;;;11.20;99.90;10.80;100613.00;;;;5012216;28;20192;-66
2022/04/05 06:36:53;;;;;;;4.23;3.93;;;11.20;99.90;10.80;100608.00;;;;4995602;28;20187;-67
2022/04/05 06:39:19;;;;;;;4.80;4.50;;;11.10;99.90;10.80;100626.00;;;;5012052;28;20184;-67
2022/04/05 06:41:46;;;;;;;5.63;5.27;;;11.10;99.90;10.90;100622.00;;;;5012090;28;20178;-67
2022/04/05 06:44:12;;;;;;;9.23;7.50;;;11.20;99.90;10.90;100622.00;;;;5012078;28;20219;-67
2022/04/05 06:46:38;;;;;;;6.43;5.20;;;11.20;99.90;10.70;100624.00;;;;5013386;28;20183;-68
2022/04/05 06:49:04;;;;;;;8.23;7.53;;;11.20;99.90;10.80;100626.00;;;;5022677;28;20225;-68
2022/04/05 06:51:30;;;;;;;2.93;2.73;;;11.20;99.90;10.60;100618.00;;;;5022361;28;20217;-67
2022/04/05 06:53:57;;;;;;;7.97;7.30;;;11.10;99.90;10.90;100632.00;;;;5031205;28;20269;-67
2022/04/05 06:56:26;;;;;;;1.77;1.77;;;11.20;99.90;10.90;100628.00;;;;5037030;28;20174;-68
2022/04/05 06:58:53;;;;;;;5.77;4.83;;;11.20;99.90;10.70;100591.00;;;;5036259;28;20185;-67
2022/04/05 07:01:20;;;;;;;5.20;4.80;;;11.10;99.90;10.80;100635.00;;;;5036997;28;20187;-68
2022/04/05 07:03:45;;;;;;;8.67;4.17;;;11.10;99.90;10.70;100606.00;;;;5035434;28;20642;-68
2022/04/05 07:06:11;;;;;;;4.07;3.67;;;11.10;99.90;10.70;100624.00;;;;5035561;28;20253;-68
2022/04/05 07:08:37;;;;;;;6.03;5.53;;;11.10;99.90;10.60;100622.00;;;;5035681;28;20232;-68
2022/04/05 07:11:04;;;;;;;8.17;7.47;;;11.10;99.90;10.80;100632.00;;;;5035351;28;20183;-69
2022/04/05 07:13:31;;;;;;;10.00;8.80;;;11.10;99.90;10.80;100631.00;;;;5036621;28;20190;-68
2022/04/05 07:15:58;;;;;;;11.10;7.53;;;11.20;99.90;10.70;100641.00;;;;5017886;28;20186;-68
2022/04/05 07:18:26;;;;;;;3.30;2.97;;;11.20;99.90;10.80;100638.00;;;;5018492;28;20186;-67
2022/04/05 07:20:52;;;;;;;8.87;7.57;;;11.20;99.90;10.90;100627.00;;;;5018655;28;20183;-67
2022/04/05 07:23:18;;;;;;;5.23;4.73;;;11.20;99.90;10.90;100631.00;;;;5035180;28;20202;-68
2022/04/05 07:25:44;;;;;;;2.77;2.67;;;11.30;99.90;10.90;100630.00;;;;5034943;28;20269;-68
2022/04/05 07:28:10;;;;;;;4.70;4.40;;;11.30;99.90;11.00;100618.00;;;;5024313;28;20222;-67
2022/04/05 07:30:35;;;;;;;4.47;4.13;;;11.30;99.90;11.00;100629.00;;;;5018396;28;20183;-68
2022/04/05 07:33:01;;;;;;;10.50;7.80;;;11.30;99.90;11.20;100633.00;;;;5034240;28;20237;-67
2022/04/05 07:35:27;;;;;;;11.37;9.77;;;11.40;99.90;11.10;100629.00;;;;5051207;28;20599;-67
2022/04/05 07:37:54;;;;;;;6.00;5.47;;;11.40;99.90;11.20;100631.00;;;;5034555;28;20188;-70
2022/04/05 07:40:22;;;;;;;6.77;6.27;;;11.40;99.90;11.20;100633.00;;;;5051373;28;20194;-70
2022/04/05 07:42:50;;;;;;;2.63;2.53;;;11.50;99.90;11.00;100601.00;;;;5034659;28;20646;-69
2022/04/05 07:45:21;;;;;;;6.23;5.63;;;11.50;99.90;11.00;100631.00;;;;5051900;28;20176;-70
2022/04/05 07:47:47;;;;;;;7.27;6.60;;;11.40;99.90;10.90;100600.00;;;;5050526;28;20791;-70
2022/04/05 07:50:13;;;;;;;4.37;4.20;;;11.40;99.90;11.20;100634.00;;;;5028726;28;20276;-69
2022/04/05 07:52:44;;;;;;;6.57;4.70;;;11.50;99.90;11.40;100637.00;;;;5034551;28;20198;-69
2022/04/05 07:55:10;;;;;;;4.43;4.13;;;11.60;99.90;11.20;100624.00;;;;5019058;28;20189;-69
2022/04/05 07:57:40;;;;;;;5.20;4.77;;;11.60;99.90;11.30;100634.00;;;;5034636;28;20200;-69
2022/04/05 08:00:07;;;;;;;10.20;7.00;;;11.60;99.90;11.50;100630.00;;;;5050166;28;20219;-69
2022/04/05 08:02:35;;;;;;;7.10;6.50;;;11.60;99.90;11.40;100629.00;;;;5034174;28;20196;-68
2022/04/05 08:05:01;;;;;;;5.30;4.87;;;11.70;99.90;11.40;100607.00;;;;5034315;28;20192;-68
2022/04/05 08:07:27;;;;;;;4.07;3.83;;;11.70;99.90;11.70;100610.00;;;;5034263;28;20187;-68
2022/04/05 08:09:56;;;;;;;6.90;6.07;;;11.80;99.90;11.60;100619.00;;;;5033878;28;20572;-68
2022/04/05 08:12:24;;;;;;;13.47;9.10;;;11.90;99.90;11.60;100630.00;;;;5017969;28;20224;-69
2022/04/05 08:14:50;;;;;;;3.73;3.53;;;11.90;99.90;11.60;100630.00;;;;5017865;28;20239;-68
2022/04/05 08:17:16;;;;;;;5.67;4.90;;;11.90;99.90;11.70;100616.00;;;;5035821;28;20160;-69
2022/04/05 08:19:46;;;;;;;6.27;5.33;;;11.90;99.90;11.60;100635.00;;;;5034349;28;20182;-70
2022/04/05 08:22:12;;;;;;;5.63;5.13;;;11.90;99.90;11.60;100624.00;;;;5034702;28;20175;-69
2022/04/05 08:24:41;;;;;;;8.97;7.40;;;11.90;99.90;11.70;100636.00;;;;5017388;28;20305;-69
2022/04/05 08:27:09;;;;;;;5.50;5.03;;;11.90;99.90;11.70;100637.00;;;;5033928;28;20168;-69
2022/04/05 08:29:40;;;;;;;5.00;4.60;;;12.00;99.90;11.40;100640.00;;;;5034373;28;20187;-69
2022/04/05 08:32:06;;;;;;;5.53;5.13;;;11.80;99.90;11.70;100633.00;;;;5035107;28;20669;-69
2022/04/05 08:34:33;;;;;;;4.50;4.10;;;11.80;99.90;11.80;100649.00;;;;5033778;28;20186;-69
2022/04/05 08:37:02;;;;;;;9.43;7.67;;;12.00;99.90;11.70;100634.00;;;;5017684;28;20555;-69
2022/04/05 08:39:28;;;;;;;6.70;6.03;;;12.00;99.90;11.70;100632.00;;;;5034230;28;20653;-69
2022/04/05 08:41:59;;;;;;;4.23;3.93;;;12.00;99.90;11.50;100653.00;;;;5034098;28;20206;-69
2022/04/05 08:44:25;;;;;;;6.83;6.07;;;11.90;99.90;11.40;100606.00;;;;5017830;28;20179;-69
2022/04/05 08:46:54;;;;;;;5.50;3.83;;;11.80;99.90;11.50;100644.00;;;;5016739;28;20296;-68
2022/04/05 08:49:30;;;;;;;3.00;2.80;;;11.90;99.90;11.50;100642.00;;;;5059992;28;20186;-74
2022/04/05 08:51:59;;;;;;;5.87;5.27;;;11.90;99.90;11.30;100649.00;;;;5033683;28;20568;-70
2022/04/05 08:54:28;;;;;;;4.87;4.47;;;11.80;99.90;11.50;100651.00;;;;5027046;28;20275;-72
2022/04/05 08:56:54;;;;;;;9.97;7.40;;;11.80;99.90;11.60;100627.00;;;;5040441;28;20194;-72
2022/04/05 08:59:20;;;;;;;9.03;6.57;;;11.80;99.90;11.50;100645.00;;;;5046810;28;20234;-73
2022/04/05 09:01:53;;;;;;;5.67;3.43;;;11.80;99.90;11.60;100652.00;;;;5046365;28;20184;-72
2022/04/05 09:04:24;;;;;;;5.23;4.80;;;11.90;99.90;11.70;100638.00;;;;5045159;28;20222;-72
2022/04/05 09:06:55;;;;;;;4.13;3.83;;;12.00;99.90;11.80;100650.00;;;;5046872;28;20198;-71
2022/04/05 09:09:28;;;;;;;6.63;6.03;;;12.00;99.90;11.60;100624.00;;;;5030147;28;20238;-72
2022/04/05 09:11:59;;;;;;;9.63;6.10;;;12.10;99.90;11.90;100653.00;;;;5015054;28;20202;-72
2022/04/05 09:14:47;;;;;;;9.47;8.47;;;12.20;99.90;12.00;100659.00;;;;5029620;28;20219;-71
2022/04/05 09:17:18;;;;;;;9.83;7.40;;;12.30;99.90;12.10;100622.00;;;;5012826;28;20196;-72
2022/04/05 09:19:51;;;;;;;5.77;5.23;;;12.40;99.90;12.20;100606.00;;;;5029986;28;20581;-72
2022/04/05 09:22:34;;;;;;;2.70;2.50;;;12.40;99.90;12.40;100658.00;;;;5012676;28;20262;-67
2022/04/05 09:25:15;;;;;;;6.43;3.53;;;12.60;99.90;12.40;100614.00;;;;5006299;28;20548;-69
2022/04/05 09:27:54;;;;;;;5.47;3.87;;;12.70;99.90;12.00;100652.00;;;;5012706;28;20667;-65
2022/04/05 09:30:24;;;;;;;5.20;4.70;;;12.50;99.90;11.90;100661.00;;;;5031084;28;20180;-65
2022/04/05 09:32:51;;;;;;;2.43;2.30;;;12.50;99.90;11.90;100646.00;;;;5029696;28;20246;-63
2022/04/05 09:35:27;;;;;;;4.30;4.00;;;12.40;99.90;11.90;100665.00;;;;5045910;28;20554;-68
2022/04/05 09:38:16;;;;;;;7.67;4.87;;;12.30;99.90;12.10;100662.00;;;;5046892;28;20172;-65
2022/04/05 09:40:43;;;;;;;4.60;4.30;;;12.30;99.90;12.10;100663.00;;;;5045569;28;20527;-66
2022/04/05 09:43:15;;;;;;;10.03;8.83;;;12.40;99.90;12.10;100677.00;;;;5047333;28;20184;-66
2022/04/05 09:46:02;;;;;;;2.50;2.30;;;12.40;99.90;12.10;100665.00;;;;5030985;28;20225;-66
2022/04/05 09:48:36;;;;;;;4.83;4.43;;;12.50;99.90;12.30;100678.00;;;;5013780;28;20188;-71
2022/04/05 09:51:14;;;;;;;2.00;1.90;;;12.60;99.90;12.70;100684.00;;;;5032863;28;20172;-72
2022/04/05 09:53:40;;;;;;;3.87;3.57;;;12.80;99.90;12.70;100677.00;;;;5046351;28;20199;-71
2022/04/05 09:56:26;;;;;;;4.50;3.97;;;12.80;99.90;12.40;100642.00;;;;5031280;28;20702;-72
2022/04/05 09:59:06;;;;;;;2.30;1.37;;;12.90;99.90;12.80;100668.00;;;;5047340;28;20196;-69
2022/04/05 10:01:36;;;;;;;2.27;2.10;;;13.00;99.90;12.90;100677.00;;;;5047485;28;20199;-71
2022/04/05 10:04:15;;;;;;;5.70;5.30;;;13.00;99.90;12.50;100676.00;;;;5032167;28;20179;-73
2022/04/05 10:06:44;;;;;;;14.83;8.63;;;12.90;99.90;12.30;100673.00;;;;5047997;28;20649;-71
2022/04/05 10:09:18;;;;;;;5.57;4.47;;;12.70;99.90;12.20;100672.00;;;;5032590;28;20555;-77
2022/04/05 10:11:46;;;;;;;3.87;3.57;;;12.70;99.90;12.30;100682.00;;;;5046616;28;20202;-75
2022/04/05 10:14:20;;;;;;;8.97;2.00;;;12.70;99.90;12.40;100687.00;;;;5031008;28;20188;-71
2022/04/05 10:16:49;;;;;;;1.53;1.43;;;12.70;99.90;12.40;100684.00;;;;5032520;28;20523;-69
2022/04/05 10:19:16;;;;;;;1.50;1.50;;;12.70;99.90;12.50;100665.00;;;;5046298;28;20183;-70
2022/04/05 10:37:22;;;;;;;2.40;2.17;;;12.40;99.90;12.20;100687.00;;;;5131192;28;20658;-73
2022/04/05 10:40:00;;;;;;;0.90;0.90;;;12.50;99.90;12.50;100687.00;;;;5094590;28;20190;-75
2022/04/05 10:42:34;;;;;;;2.00;1.90;;;12.70;99.90;12.00;100694.00;;;;5112433;28;20184;-74
2022/04/05 10:45:19;;;;;;;2.77;2.67;;;12.60;99.90;12.80;100684.00;;;;5094900;28;20335;-81
2022/04/05 10:48:12;;;;;;;1.67;1.57;;;12.80;99.90;12.60;100677.00;;;;5095200;28;20212;-72
2022/04/05 10:50:41;;;;;;;3.13;3.03;;;12.90;99.90;12.80;100678.00;;;;5129343;28;20224;-69
2022/04/05 10:53:21;;;;;;;3.03;2.77;;;13.00;99.90;12.30;100678.00;;;;5100345;28;20625;-69
2022/04/05 10:56:07;;;;;;;0.90;0.90;;;12.80;99.90;12.80;100678.00;;;;5077894;28;20188;-69
2022/04/05 10:58:50;;;;;;;2.10;1.70;;;13.00;99.90;12.30;100678.00;;;;5101509;28;20251;-70
2022/04/05 11:01:37;;;;;;;2.07;1.93;;;12.90;99.90;12.30;100674.00;;;;5110654;28;20181;-69
2022/04/05 11:04:16;;;;;;;2.30;1.60;;;12.80;99.90;12.80;100667.00;;;;5103300;28;20192;-69
2022/04/05 11:07:06;;;;;;;2.20;2.00;;;13.10;99.90;12.80;100657.00;;;;5112834;28;20192;-69
2022/04/05 11:09:42;;;;;;;1.17;1.17;;;13.10;99.90;12.70;100670.00;;;;5119114;28;20704;-70